createdAt,value
2022-08-17T00:00:34.981Z,21.10
2022-08-17T00:01:51.275Z,21.24
2022-08-17T00:03:11.086Z,21.20
2022-08-17T00:04:11.942Z,21.16
2022-08-17T00:05:08.775Z,20.38
2022-08-17T00:06:12.830Z,21.21
2022-08-17T00:07:09.697Z,21.12
2022-08-17T00:08:06.801Z,21.13
2022-08-17T00:09:05.179Z,21.15
2022-08-17T00:10:02.034Z,20.92
2022-08-17T00:11:00.242Z,21.14
2022-08-17T00:12:40.410Z,20.96
2022-08-17T00:13:37.112Z,21.16
2022-08-17T00:14:33.994Z,20.96
2022-08-17T00:15:30.730Z,21.24
2022-08-17T00:16:56.787Z,21.23
2022-08-17T00:17:54.337Z,21.21
2022-08-17T00:19:01.133Z,21.29
2022-08-17T00:20:06.346Z,21.19
2022-08-17T00:21:10.380Z,21.32
2022-08-17T00:22:32.676Z,21.23
2022-08-17T00:23:25.770Z,21.28
2022-08-17T00:24:22.556Z,21.00
2022-08-17T00:25:20.122Z,21.25
2022-08-17T00:26:34.883Z,21.09
2022-08-17T00:27:36.945Z,21.12
2022-08-17T00:28:33.727Z,20.90
2022-08-17T00:29:30.459Z,21.14
2022-08-17T00:30:27.255Z,21.18
2022-08-17T00:31:24.890Z,20.53
2022-08-17T00:33:11.651Z,21.12
2022-08-17T00:33:40.309Z,21.01
2022-08-17T00:34:37.059Z,21.09
2022-08-17T00:35:34.681Z,20.76
2022-08-17T00:36:31.614Z,21.05
2022-08-17T00:37:28.317Z,20.88
2022-08-17T00:38:26.777Z,20.78
2022-08-17T00:39:23.850Z,21.04
2022-08-17T00:40:21.688Z,21.07
2022-08-17T00:41:25.486Z,21.01
2022-08-17T00:42:24.498Z,20.91
2022-08-17T00:43:32.666Z,20.78
2022-08-17T00:44:31.237Z,20.89
2022-08-17T00:45:28.213Z,20.91
2022-08-17T00:46:38.166Z,21.10
2022-08-17T00:47:34.998Z,20.97
2022-08-17T00:48:33.345Z,21.05
2022-08-17T00:49:31.352Z,21.04
2022-08-17T00:50:28.174Z,21.02
2022-08-17T00:51:43.827Z,20.96
2022-08-17T00:52:52.470Z,20.62
2022-08-17T00:54:08.531Z,20.95
2022-08-17T00:55:08.670Z,20.94
2022-08-17T00:56:10.741Z,20.94
2022-08-17T00:57:12.416Z,20.90
2022-08-17T00:58:10.607Z,20.91
2022-08-17T00:59:11.398Z,20.78
2022-08-17T01:00:19.611Z,20.82
2022-08-17T01:01:21.721Z,20.52
2022-08-17T01:02:20.075Z,20.38
2022-08-17T01:03:27.418Z,20.69
2022-08-17T01:04:27.690Z,20.64
2022-08-17T01:05:29.338Z,20.56
2022-08-17T01:06:27.138Z,20.30
2022-08-17T01:07:26.266Z,20.29
2022-08-17T01:08:28.087Z,20.28
2022-08-17T01:09:25.770Z,20.45
2022-08-17T01:10:58.383Z,20.29
2022-08-17T01:11:52.146Z,20.41
2022-08-17T01:12:49.670Z,20.37
2022-08-17T01:13:47.752Z,20.47
2022-08-17T01:14:44.523Z,20.38
2022-08-17T01:15:57.817Z,19.99
2022-08-17T01:16:56.317Z,19.91
2022-08-17T01:17:53.106Z,20.04
2022-08-17T01:18:54.347Z,20.25
2022-08-17T01:19:51.122Z,19.96
2022-08-17T01:20:53.634Z,20.05
2022-08-17T01:21:55.631Z,20.04
2022-08-17T01:22:54.218Z,19.68
2022-08-17T01:23:50.995Z,19.83
2022-08-17T01:24:56.222Z,19.55
2022-08-17T01:25:57.426Z,19.83
2022-08-17T01:26:54.165Z,19.79
2022-08-17T01:27:53.546Z,19.74
2022-08-17T01:28:54.328Z,19.82
2022-08-17T01:29:58.638Z,19.85
2022-08-17T01:30:58.042Z,19.74
2022-08-17T01:32:00.446Z,19.64
2022-08-17T01:32:57.169Z,19.40
2022-08-17T01:33:53.956Z,19.40
2022-08-17T01:34:52.770Z,19.36
2022-08-17T01:35:49.474Z,19.52
2022-08-17T01:36:49.115Z,19.61
2022-08-17T01:37:46.291Z,19.41
2022-08-17T01:38:43.571Z,19.78
2022-08-17T01:39:40.309Z,19.90
2022-08-17T01:40:43.720Z,19.95
2022-08-17T01:41:41.226Z,19.75
2022-08-17T01:42:59.955Z,19.96
2022-08-17T01:44:07.938Z,19.89
2022-08-17T01:45:11.752Z,19.75
2022-08-17T01:46:08.620Z,19.67
2022-08-17T01:47:06.187Z,18.99
2022-08-17T01:48:03.200Z,19.83
2022-08-17T01:49:05.353Z,19.74
2022-08-17T01:50:10.290Z,19.64
2022-08-17T01:51:07.633Z,19.81
2022-08-17T01:52:08.669Z,19.92
2022-08-17T01:53:13.047Z,19.93
2022-08-17T01:54:15.074Z,19.79
2022-08-17T01:55:15.789Z,19.10
2022-08-17T01:56:18.188Z,19.60
2022-08-17T01:57:14.992Z,19.51
2022-08-17T01:58:11.924Z,19.51
2022-08-17T01:59:09.496Z,19.32
2022-08-17T02:00:10.370Z,19.48
2022-08-17T02:01:08.694Z,19.28
2022-08-17T02:02:07.498Z,19.57
2022-08-17T02:03:05.329Z,18.88
2022-08-17T02:04:03.538Z,18.89
2022-08-17T02:05:00.390Z,18.94
2022-08-17T02:05:58.138Z,19.55
2022-08-17T02:06:54.941Z,19.57
2022-08-17T02:08:00.638Z,19.50
2022-08-17T02:09:02.362Z,19.57
2022-08-17T02:10:00.459Z,19.46
2022-08-17T02:10:57.202Z,19.03
2022-08-17T02:12:00.089Z,19.22
2022-08-17T02:13:17.053Z,19.00
2022-08-17T02:14:14.941Z,19.29
2022-08-17T02:15:12.571Z,19.21
2022-08-17T02:16:09.507Z,19.20
2022-08-17T02:17:06.321Z,19.06
2022-08-17T02:18:05.698Z,19.05
2022-08-17T02:19:03.185Z,19.12
2022-08-17T02:19:59.912Z,18.89
2022-08-17T02:20:57.266Z,19.03
2022-08-17T02:21:55.146Z,19.10
2022-08-17T02:22:52.212Z,18.32
2022-08-17T02:23:50.476Z,19.09
2022-08-17T02:25:01.115Z,19.04
2022-08-17T02:26:00.334Z,18.99
2022-08-17T02:26:57.103Z,19.13
2022-08-17T02:27:53.885Z,19.02
2022-08-17T02:28:51.034Z,19.15
2022-08-17T02:29:48.340Z,19.24
2022-08-17T02:31:01.746Z,18.97
2022-08-17T02:32:01.930Z,18.88
2022-08-17T02:32:58.985Z,19.14
2022-08-17T02:34:03.884Z,19.38
2022-08-17T02:35:02.155Z,19.31
2022-08-17T02:35:58.972Z,19.22
2022-08-17T02:36:55.989Z,19.30
2022-08-17T02:37:55.437Z,18.73
2022-08-17T02:38:52.650Z,19.32
2022-08-17T02:39:49.534Z,19.09
2022-08-17T02:40:47.561Z,19.40
2022-08-17T02:41:45.026Z,19.20
2022-08-17T02:42:44.006Z,18.97
2022-08-17T02:43:40.881Z,19.04
2022-08-17T02:44:39.965Z,18.91
2022-08-17T02:45:37.206Z,18.92
2022-08-17T02:46:34.339Z,18.83
2022-08-17T02:47:31.361Z,18.78
2022-08-17T02:48:30.944Z,18.79
2022-08-17T02:49:28.650Z,18.88
2022-08-17T02:50:26.825Z,18.09
2022-08-17T02:51:23.827Z,18.65
2022-08-17T02:52:43.003Z,18.81
2022-08-17T02:53:38.157Z,18.99
2022-08-17T02:54:40.818Z,18.10
2022-08-17T02:55:40.940Z,18.73
2022-08-17T02:56:37.707Z,18.73
2022-08-17T02:57:34.461Z,18.76
2022-08-17T02:58:35.200Z,18.83
2022-08-17T02:59:32.653Z,18.92
2022-08-17T03:00:36.327Z,18.80
2022-08-17T03:01:33.141Z,18.70
2022-08-17T03:02:30.032Z,18.68
2022-08-17T03:03:26.939Z,18.97
2022-08-17T03:04:23.933Z,18.64
2022-08-17T03:05:24.909Z,18.92
2022-08-17T03:06:21.628Z,19.08
2022-08-17T03:07:20.266Z,19.10
2022-08-17T03:08:17.783Z,18.94
2022-08-17T03:09:16.812Z,19.14
2022-08-17T03:10:14.712Z,19.13
2022-08-17T03:11:11.495Z,18.71
2022-08-17T03:12:12.897Z,18.83
2022-08-17T03:13:10.606Z,18.63
2022-08-17T03:14:07.346Z,18.62
2022-08-17T03:15:06.966Z,18.72
2022-08-17T03:16:03.901Z,18.69
2022-08-17T03:17:01.267Z,18.50
2022-08-17T03:17:59.152Z,18.50
2022-08-17T03:18:55.922Z,18.21
2022-08-17T03:19:52.641Z,18.58
2022-08-17T03:20:49.734Z,18.23
2022-08-17T03:21:46.445Z,18.50
2022-08-17T03:22:55.564Z,18.50
2022-08-17T03:23:59.487Z,18.80
2022-08-17T03:24:57.047Z,18.89
2022-08-17T03:25:55.115Z,18.93
2022-08-17T03:26:52.420Z,18.71
2022-08-17T03:27:49.454Z,18.84
2022-08-17T03:28:48.246Z,17.27
2022-08-17T03:29:45.070Z,18.35
2022-08-17T03:30:41.903Z,18.33
2022-08-17T03:31:38.647Z,17.97
2022-08-17T03:32:41.757Z,18.53
2022-08-17T03:33:38.531Z,18.47
2022-08-17T03:34:35.280Z,18.34
2022-08-17T03:35:34.162Z,18.22
2022-08-17T03:36:30.922Z,18.44
2022-08-17T03:37:32.733Z,18.39
2022-08-17T03:38:29.549Z,18.20
2022-08-17T03:39:36.308Z,18.67
2022-08-17T03:40:55.530Z,18.52
2022-08-17T03:41:49.923Z,18.34
2022-08-17T03:42:47.523Z,18.54
2022-08-17T03:43:44.221Z,18.80
2022-08-17T03:44:40.999Z,18.91
2022-08-17T03:45:57.007Z,18.96
2022-08-17T03:47:12.370Z,19.01
2022-08-17T03:48:29.172Z,18.92
2022-08-17T03:49:44.568Z,18.64
2022-08-17T03:51:00.003Z,18.70
2022-08-17T03:52:16.530Z,18.57
2022-08-17T03:53:35.440Z,18.90
2022-08-17T03:54:50.707Z,18.69
2022-08-17T03:56:05.926Z,17.62
2022-08-17T03:57:08.682Z,18.21
2022-08-17T03:58:05.418Z,18.48
2022-08-17T03:59:02.269Z,18.44
2022-08-17T03:59:59.873Z,18.44
2022-08-17T04:00:56.918Z,18.41
2022-08-17T04:01:58.370Z,18.55
2022-08-17T04:02:55.410Z,18.60
2022-08-17T04:03:52.250Z,17.97
2022-08-17T04:04:50.984Z,18.81
2022-08-17T04:05:47.951Z,18.96
2022-08-17T04:06:45.183Z,19.09
2022-08-17T04:07:41.913Z,19.09
2022-08-17T04:08:38.780Z,19.01
2022-08-17T04:09:36.630Z,18.85
2022-08-17T04:10:41.372Z,18.69
2022-08-17T04:11:42.817Z,18.60
2022-08-17T04:12:50.020Z,18.45
2022-08-17T04:13:46.886Z,18.44
2022-08-17T04:14:53.107Z,18.41
2022-08-17T04:15:51.107Z,18.78
2022-08-17T04:16:47.888Z,18.84
2022-08-17T04:17:45.786Z,18.55
2022-08-17T04:18:42.518Z,19.00
2022-08-17T04:19:39.268Z,19.02
2022-08-17T04:20:36.003Z,18.16
2022-08-17T04:21:34.416Z,18.62
2022-08-17T04:22:34.194Z,18.79
2022-08-17T04:23:33.781Z,18.93
2022-08-17T04:24:30.904Z,18.27
2022-08-17T04:25:30.261Z,19.07
2022-08-17T04:26:52.905Z,19.12
2022-08-17T04:27:45.122Z,19.17
2022-08-17T04:28:43.264Z,19.03
2022-08-17T04:29:54.384Z,19.31
2022-08-17T04:30:52.064Z,19.54
2022-08-17T04:31:48.920Z,19.65
2022-08-17T04:33:03.670Z,19.55
2022-08-17T04:34:03.317Z,19.68
2022-08-17T04:35:00.848Z,19.67
2022-08-17T04:36:01.262Z,19.91
2022-08-17T04:36:57.967Z,19.89
2022-08-17T04:37:54.897Z,20.02
2022-08-17T04:38:51.806Z,20.08
2022-08-17T04:40:08.548Z,19.59
2022-08-17T04:41:25.123Z,19.92
2022-08-17T04:42:21.832Z,19.77
2022-08-17T04:43:21.522Z,19.73
2022-08-17T04:44:28.347Z,19.90
2022-08-17T04:45:39.061Z,19.47
2022-08-17T04:46:36.874Z,20.14
2022-08-17T04:47:33.624Z,19.93
2022-08-17T04:48:36.199Z,20.11
2022-08-17T04:49:35.072Z,20.28
2022-08-17T04:50:34.693Z,20.15
2022-08-17T04:51:38.585Z,20.44
2022-08-17T04:52:46.206Z,20.33
2022-08-17T04:53:54.128Z,19.97
2022-08-17T04:54:51.587Z,19.87
2022-08-17T04:55:48.461Z,20.13
2022-08-17T04:56:45.901Z,19.96
2022-08-17T04:57:45.056Z,20.22
2022-08-17T04:58:47.883Z,20.27
2022-08-17T04:59:46.549Z,20.26
2022-08-17T05:00:43.304Z,20.76
2022-08-17T05:01:42.990Z,20.32
2022-08-17T05:02:50.736Z,20.67
2022-08-17T05:03:47.930Z,20.61
2022-08-17T05:04:44.727Z,20.52
2022-08-17T05:05:49.827Z,20.51
2022-08-17T05:06:47.327Z,20.62
2022-08-17T05:07:44.058Z,20.40
2022-08-17T05:08:40.874Z,20.57
2022-08-17T05:09:37.634Z,20.72
2022-08-17T05:10:45.141Z,20.85
2022-08-17T05:11:44.976Z,20.29
2022-08-17T05:12:41.918Z,20.95
2022-08-17T05:13:38.754Z,20.59
2022-08-17T05:14:35.547Z,20.84
2022-08-17T05:15:36.078Z,20.96
2022-08-17T05:16:32.933Z,20.92
2022-08-17T05:17:29.830Z,20.18
2022-08-17T05:18:28.194Z,20.69
2022-08-17T05:19:24.945Z,20.79
2022-08-17T05:20:23.554Z,20.58
2022-08-17T05:21:22.933Z,20.94
2022-08-17T05:22:19.666Z,20.87
2022-08-17T05:23:19.011Z,20.90
2022-08-17T05:24:43.334Z,20.59
2022-08-17T05:25:37.444Z,21.13
2022-08-17T05:26:34.249Z,21.31
2022-08-17T05:27:35.412Z,20.90
2022-08-17T05:28:33.056Z,21.11
2022-08-17T05:29:35.343Z,21.25
2022-08-17T05:30:32.973Z,21.82
2022-08-17T05:31:31.058Z,21.44
2022-08-17T05:32:38.457Z,21.84
2022-08-17T05:33:42.672Z,21.81
2022-08-17T05:34:41.211Z,22.02
2022-08-17T05:35:46.951Z,21.90
2022-08-17T05:36:44.611Z,21.67
2022-08-17T05:37:41.397Z,21.44
2022-08-17T05:38:38.449Z,21.39
2022-08-17T05:39:35.278Z,21.44
2022-08-17T05:40:32.896Z,21.28
2022-08-17T05:41:30.136Z,21.47
2022-08-17T05:42:27.013Z,20.94
2022-08-17T05:43:30.565Z,21.66
2022-08-17T05:44:27.330Z,21.67
2022-08-17T05:45:54.350Z,21.61
2022-08-17T05:46:47.973Z,21.74
2022-08-17T05:47:47.491Z,21.48
2022-08-17T05:48:48.600Z,21.56
2022-08-17T05:49:45.525Z,21.53
2022-08-17T05:51:16.615Z,21.68
2022-08-17T05:52:25.620Z,21.82
2022-08-17T05:53:44.546Z,21.27
2022-08-17T05:54:50.184Z,21.92
2022-08-17T05:56:30.190Z,22.05
2022-08-17T05:58:03.991Z,21.98
2022-08-17T05:59:16.021Z,22.26
2022-08-17T06:00:17.046Z,22.68
2022-08-17T06:01:29.213Z,22.96
2022-08-17T06:03:11.135Z,23.20
2022-08-17T06:04:10.442Z,23.33
2022-08-17T06:05:15.883Z,23.33
2022-08-17T06:06:34.279Z,23.02
2022-08-17T06:07:30.997Z,23.15
2022-08-17T06:08:53.582Z,22.53
2022-08-17T06:10:05.272Z,23.27
2022-08-17T06:11:19.873Z,23.25
2022-08-17T06:12:34.982Z,23.45
2022-08-17T06:14:03.501Z,22.85
2022-08-17T06:15:19.587Z,23.09
2022-08-17T06:16:33.191Z,23.36
2022-08-17T06:17:32.165Z,23.48
2022-08-17T06:18:41.937Z,23.27
2022-08-17T06:19:46.964Z,23.36
2022-08-17T06:20:52.270Z,23.28
2022-08-17T06:21:53.635Z,23.16
2022-08-17T06:22:58.826Z,23.11
2022-08-17T06:24:18.813Z,23.33
2022-08-17T06:25:21.090Z,23.40
2022-08-17T06:26:25.938Z,23.32
2022-08-17T06:27:57.262Z,23.25
2022-08-17T06:29:18.707Z,22.49
2022-08-17T06:30:28.995Z,23.51
2022-08-17T06:31:46.120Z,23.69
2022-08-17T06:32:46.249Z,23.01
2022-08-17T06:33:46.385Z,23.68
2022-08-17T06:34:46.249Z,23.84
2022-08-17T06:36:11.309Z,23.37
2022-08-17T06:37:35.766Z,23.91
2022-08-17T06:38:46.705Z,23.59
2022-08-17T06:40:10.953Z,23.56
2022-08-17T06:41:17.068Z,23.80
2022-08-17T06:43:02.864Z,23.93
2022-08-17T06:43:49.412Z,24.07
2022-08-17T06:45:14.365Z,24.22
2022-08-17T06:46:42.906Z,24.29
2022-08-17T06:48:05.916Z,24.45
2022-08-17T06:49:25.866Z,24.59
2022-08-17T06:50:35.974Z,24.32
2022-08-17T06:51:50.609Z,24.21
2022-08-17T06:52:57.692Z,24.36
2022-08-17T06:54:15.261Z,24.32
2022-08-17T06:55:19.461Z,24.48
2022-08-17T06:56:53.851Z,24.70
2022-08-17T06:57:57.590Z,24.53
2022-08-17T06:58:57.350Z,24.57
2022-08-17T06:59:56.858Z,24.63
2022-08-17T07:00:59.080Z,24.42
2022-08-17T07:01:56.474Z,24.44
2022-08-17T07:02:59.568Z,24.39
2022-08-17T07:04:12.150Z,24.50
2022-08-17T07:05:09.992Z,24.77
2022-08-17T07:06:14.636Z,24.86
2022-08-17T07:07:31.750Z,24.71
2022-08-17T07:09:10.006Z,24.83
2022-08-17T07:10:10.801Z,24.63
2022-08-17T07:11:15.039Z,24.86
2022-08-17T07:12:17.806Z,24.29
2022-08-17T07:13:44.572Z,24.88
2022-08-17T07:14:54.213Z,24.80
2022-08-17T07:16:10.210Z,24.95
2022-08-17T07:17:20.623Z,24.97
2022-08-17T07:18:17.505Z,24.97
2022-08-17T07:19:16.872Z,24.95
2022-08-17T07:20:23.126Z,24.99
2022-08-17T07:21:28.610Z,25.18
2022-08-17T07:22:54.457Z,25.03
2022-08-17T07:24:43.243Z,25.10
2022-08-17T07:25:40.133Z,25.07
2022-08-17T07:26:38.864Z,25.27
2022-08-17T07:27:40.261Z,25.32
2022-08-17T07:28:38.508Z,25.32
2022-08-17T07:29:49.476Z,25.26
2022-08-17T07:30:53.606Z,25.21
2022-08-17T07:31:50.990Z,25.53
2022-08-17T07:33:13.422Z,25.52
2022-08-17T07:34:14.652Z,25.31
2022-08-17T07:35:37.750Z,25.45
2022-08-17T07:36:37.902Z,25.20
2022-08-17T07:37:38.871Z,25.48
2022-08-17T07:38:35.740Z,25.72
2022-08-17T07:39:32.728Z,25.86
2022-08-17T07:40:41.361Z,25.96
2022-08-17T07:41:57.491Z,26.01
2022-08-17T07:43:23.877Z,25.93
2022-08-17T07:44:20.723Z,25.52
2022-08-17T07:45:36.271Z,26.09
2022-08-17T07:46:54.706Z,26.35
2022-08-17T07:48:10.469Z,26.40
2022-08-17T07:49:15.164Z,26.36
2022-08-17T07:50:27.899Z,26.26
2022-08-17T07:51:29.214Z,26.35
2022-08-17T07:52:51.997Z,26.38
2022-08-17T07:53:48.449Z,26.48
2022-08-17T07:54:45.214Z,26.42
2022-08-17T07:55:42.944Z,26.37
2022-08-17T07:56:45.673Z,26.32
2022-08-17T07:57:42.399Z,26.50
2022-08-17T07:58:39.334Z,26.37
2022-08-17T08:00:01.405Z,26.57
2022-08-17T08:01:10.616Z,26.37
2022-08-17T08:02:40.300Z,26.59
2022-08-17T08:03:46.270Z,25.93
2022-08-17T08:05:06.737Z,27.06
2022-08-17T08:06:20.858Z,26.96
2022-08-17T08:07:17.667Z,27.45
2022-08-17T08:08:33.518Z,27.51
2022-08-17T08:09:32.649Z,27.70
2022-08-17T08:10:38.438Z,27.42
2022-08-17T08:11:44.105Z,27.33
2022-08-17T08:12:53.710Z,27.35
2022-08-17T08:13:50.842Z,27.48
2022-08-17T08:14:59.726Z,27.55
2022-08-17T08:16:20.605Z,27.83
2022-08-17T08:17:26.606Z,27.94
2022-08-17T08:18:45.927Z,27.79
2022-08-17T08:19:52.198Z,27.79
2022-08-17T08:21:09.578Z,27.57
2022-08-17T08:22:18.535Z,27.69
2022-08-17T08:23:18.775Z,27.74
2022-08-17T08:24:40.204Z,28.08
2022-08-17T08:26:05.485Z,28.26
2022-08-17T08:27:21.948Z,28.02
2022-08-17T08:28:25.944Z,27.79
2022-08-17T08:30:02.924Z,27.79
2022-08-17T08:31:17.316Z,27.60
2022-08-17T08:32:28.769Z,27.62
2022-08-17T08:33:41.867Z,27.12
2022-08-17T08:35:02.672Z,27.55
2022-08-17T08:36:03.340Z,27.69
2022-08-17T08:37:36.634Z,27.58
2022-08-17T08:39:09.743Z,27.67
2022-08-17T08:40:35.250Z,27.85
2022-08-17T08:41:58.883Z,27.99
2022-08-17T08:43:13.949Z,28.00
2022-08-17T08:45:00.064Z,28.12
2022-08-17T08:46:10.254Z,28.06
2022-08-17T08:47:18.268Z,28.03
2022-08-17T08:49:12.196Z,28.11
2022-08-17T08:50:37.142Z,28.23
2022-08-17T08:51:52.559Z,28.37
2022-08-17T08:53:02.726Z,28.08
2022-08-17T08:54:43.268Z,28.08
2022-08-17T08:56:02.965Z,27.66
2022-08-17T08:57:26.808Z,28.05
2022-08-17T08:58:50.719Z,28.06
2022-08-17T09:00:13.170Z,27.97
2022-08-17T09:01:21.464Z,28.16
2022-08-17T09:02:45.601Z,28.25
2022-08-17T09:04:18.351Z,27.84
2022-08-17T09:05:34.394Z,28.15
2022-08-17T09:06:57.410Z,28.12
2022-08-17T09:07:56.300Z,28.29
2022-08-17T09:09:16.214Z,28.45
2022-08-17T09:10:49.661Z,28.35
2022-08-17T09:12:04.108Z,28.11
2022-08-17T09:13:18.129Z,27.88
2022-08-17T09:14:32.510Z,28.31
2022-08-17T09:16:09.561Z,28.40
2022-08-17T09:17:19.361Z,28.26
2022-08-17T09:19:02.840Z,28.39
2022-08-17T09:20:27.973Z,28.64
2022-08-17T09:21:48.989Z,28.69
2022-08-17T09:22:57.855Z,28.19
2022-08-17T09:24:04.942Z,28.47
2022-08-17T09:25:28.356Z,28.58
2022-08-17T09:26:35.177Z,28.45
2022-08-17T09:27:41.685Z,28.67
2022-08-17T09:28:44.558Z,28.66
2022-08-17T09:30:00.860Z,28.62
2022-08-17T09:31:09.710Z,28.31
2022-08-17T09:32:24.890Z,28.53
2022-08-17T09:33:27.733Z,28.51
2022-08-17T09:34:40.342Z,28.51
2022-08-17T09:35:48.678Z,28.86
2022-08-17T09:37:15.760Z,28.80
2022-08-17T09:38:35.453Z,28.87
2022-08-17T09:40:10.075Z,28.75
2022-08-17T09:41:15.845Z,28.56
2022-08-17T09:42:39.592Z,28.45
2022-08-17T09:43:50.721Z,28.43
2022-08-17T09:45:04.299Z,28.04
2022-08-17T09:46:09.920Z,28.60
2022-08-17T09:47:30.650Z,28.67
2022-08-17T09:48:41.695Z,28.49
2022-08-17T09:49:49.718Z,28.37
2022-08-17T09:51:03.772Z,28.63
2022-08-17T09:52:14.697Z,28.56
2022-08-17T09:53:15.081Z,28.64
2022-08-17T09:54:38.672Z,28.56
2022-08-17T09:55:45.126Z,28.72
2022-08-17T09:57:05.710Z,28.76
2022-08-17T09:58:20.308Z,28.84
2022-08-17T09:59:38.896Z,28.80
2022-08-17T10:00:53.199Z,28.80
2022-08-17T10:02:21.215Z,28.86
2022-08-17T10:03:40.506Z,28.87
2022-08-17T10:05:03.959Z,28.82
2022-08-17T10:06:07.826Z,28.89
2022-08-17T10:07:18.296Z,28.98
2022-08-17T10:08:27.606Z,28.80
2022-08-17T10:09:27.047Z,28.95
2022-08-17T10:10:52.357Z,28.89
2022-08-17T10:12:17.842Z,28.90
2022-08-17T10:13:22.977Z,29.11
2022-08-17T10:14:43.680Z,29.22
2022-08-17T10:15:47.156Z,29.29
2022-08-17T10:17:03.362Z,29.04
2022-08-17T10:18:18.271Z,29.05
2022-08-17T10:19:35.706Z,29.15
2022-08-17T10:21:19.103Z,29.26
2022-08-17T10:22:44.008Z,29.12
2022-08-17T10:24:03.667Z,29.14
2022-08-17T10:25:24.869Z,29.27
2022-08-17T10:26:53.454Z,29.21
2022-08-17T10:27:54.583Z,28.53
2022-08-17T10:29:06.675Z,28.60
2022-08-17T10:30:08.163Z,28.97
2022-08-17T10:31:34.249Z,29.18
2022-08-17T10:32:32.273Z,29.33
2022-08-17T10:33:53.438Z,29.24
2022-08-17T10:35:33.883Z,29.06
2022-08-17T10:36:41.094Z,29.26
2022-08-17T10:37:59.291Z,29.21
2022-08-17T10:39:33.135Z,29.27
2022-08-17T10:40:36.869Z,29.42
2022-08-17T10:41:43.037Z,28.87
2022-08-17T10:42:57.442Z,29.32
2022-08-17T10:44:36.794Z,29.36
2022-08-17T10:45:45.401Z,29.40
2022-08-17T10:47:01.708Z,29.48
2022-08-17T10:48:06.131Z,29.26
2022-08-17T10:49:18.631Z,29.34
2022-08-17T10:50:50.437Z,29.67
2022-08-17T10:51:59.982Z,28.96
2022-08-17T10:52:56.775Z,29.42
2022-08-17T10:53:55.042Z,29.71
2022-08-17T10:54:51.790Z,29.76
2022-08-17T10:56:12.936Z,29.65
2022-08-17T10:57:34.490Z,30.03
2022-08-17T10:58:50.999Z,30.05
2022-08-17T10:59:50.855Z,29.86
2022-08-17T11:00:53.804Z,29.68
2022-08-17T11:02:12.350Z,29.59
2022-08-17T11:03:24.706Z,29.60
2022-08-17T11:04:21.508Z,29.77
2022-08-17T11:05:22.289Z,29.79
2022-08-17T11:06:51.514Z,29.57
2022-08-17T11:07:48.190Z,29.67
2022-08-17T11:09:02.482Z,29.48
2022-08-17T11:10:17.783Z,29.59
2022-08-17T11:11:38.765Z,29.84
2022-08-17T11:13:08.731Z,29.89
2022-08-17T11:14:33.850Z,29.88
2022-08-17T11:16:10.634Z,30.20
2022-08-17T11:17:44.691Z,30.48
2022-08-17T11:19:31.896Z,30.60
2022-08-17T11:21:04.526Z,30.49
2022-08-17T11:22:33.701Z,30.63
2022-08-17T11:23:39.966Z,30.86
2022-08-17T11:24:51.469Z,30.54
2022-08-17T11:25:53.177Z,30.73
2022-08-17T11:27:26.616Z,30.84
2022-08-17T11:28:34.589Z,30.72
2022-08-17T11:29:51.954Z,30.73
2022-08-17T11:30:55.299Z,30.68
2022-08-17T11:32:03.233Z,30.50
2022-08-17T11:32:59.969Z,30.67
2022-08-17T11:33:59.773Z,30.42
2022-08-17T11:35:13.630Z,29.86
2022-08-17T11:36:12.946Z,30.27
2022-08-17T11:37:09.601Z,30.38
2022-08-17T11:38:31.330Z,30.55
2022-08-17T11:39:49.868Z,30.72
2022-08-17T11:40:49.324Z,30.22
2022-08-17T11:41:48.931Z,30.23
2022-08-17T11:42:45.606Z,30.21
2022-08-17T11:44:10.578Z,30.13
2022-08-17T11:45:32.626Z,30.23
2022-08-17T11:47:13.358Z,30.26
2022-08-17T11:48:56.345Z,29.95
2022-08-17T11:50:38.974Z,29.73
2022-08-17T11:52:04.257Z,29.68
2022-08-17T11:53:01.260Z,29.37
2022-08-17T11:55:41.754Z,29.69
2022-08-17T11:56:49.932Z,29.78
2022-08-17T11:58:00.957Z,29.66
2022-08-17T11:58:58.802Z,29.28
2022-08-17T12:00:11.165Z,29.07
2022-08-17T12:01:52.499Z,29.10
2022-08-17T12:03:27.773Z,29.08
2022-08-17T12:04:30.373Z,28.99
2022-08-17T12:05:32.980Z,29.07
2022-08-17T12:06:41.392Z,29.17
2022-08-17T12:08:07.147Z,29.05
2022-08-17T12:09:21.268Z,28.70
2022-08-17T12:10:30.233Z,28.52
2022-08-17T12:12:12.842Z,28.54
2022-08-17T12:13:15.904Z,28.52
2022-08-17T12:14:45.049Z,28.32
2022-08-17T12:15:51.049Z,28.52
2022-08-17T12:17:04.234Z,28.49
2022-08-17T12:18:01.215Z,28.46
2022-08-17T12:19:02.476Z,28.57
2022-08-17T12:20:19.717Z,28.74
2022-08-17T12:21:23.746Z,28.90
2022-08-17T12:22:38.731Z,28.62
2022-08-17T12:24:05.314Z,29.03
2022-08-17T12:25:19.234Z,29.12
2022-08-17T12:26:25.073Z,28.95
2022-08-17T12:27:46.098Z,29.33
2022-08-17T12:28:47.978Z,29.38
2022-08-17T12:29:45.193Z,29.17
2022-08-17T12:30:49.778Z,29.29
2022-08-17T12:31:52.463Z,29.27
2022-08-17T12:32:50.092Z,29.26
2022-08-17T12:33:49.941Z,29.07
2022-08-17T12:34:49.909Z,29.69
2022-08-17T12:35:47.425Z,29.81
2022-08-17T12:36:50.340Z,29.88
2022-08-17T12:37:50.390Z,29.68
2022-08-17T12:39:12.821Z,28.47
2022-08-17T12:40:23.386Z,28.80
2022-08-17T12:41:34.213Z,28.78
2022-08-17T12:42:36.327Z,28.16
2022-08-17T12:43:33.658Z,28.44
2022-08-17T12:44:36.446Z,28.37
2022-08-17T12:46:01.030Z,28.90
2022-08-17T12:47:19.350Z,29.06
2022-08-17T12:48:27.064Z,29.07
2022-08-17T12:49:36.975Z,28.84
2022-08-17T12:50:40.583Z,28.76
2022-08-17T12:51:42.023Z,28.96
2022-08-17T12:52:42.682Z,29.01
2022-08-17T12:53:45.474Z,28.80
2022-08-17T12:55:18.008Z,28.94
2022-08-17T12:56:15.342Z,28.85
2022-08-17T12:57:42.877Z,28.53
2022-08-17T12:58:53.411Z,29.01
2022-08-17T12:59:58.957Z,28.53
2022-08-17T13:01:06.124Z,28.70
2022-08-17T13:02:03.174Z,28.52
2022-08-17T13:03:22.867Z,29.00
2022-08-17T13:04:20.277Z,29.25
2022-08-17T13:05:41.575Z,29.43
2022-08-17T13:06:48.462Z,29.53
2022-08-17T13:07:46.646Z,29.52
2022-08-17T13:08:48.011Z,29.44
2022-08-17T13:09:51.508Z,29.37
2022-08-17T13:10:56.495Z,29.43
2022-08-17T13:11:59.315Z,29.12
2022-08-17T13:12:57.378Z,29.55
2022-08-17T13:13:56.173Z,29.62
2022-08-17T13:14:52.944Z,29.61
2022-08-17T13:16:00.515Z,29.54
2022-08-17T13:17:01.100Z,29.19
2022-08-17T13:18:07.863Z,29.61
2022-08-17T13:19:39.954Z,29.78
2022-08-17T13:20:37.944Z,29.62
2022-08-17T13:21:37.883Z,29.80
2022-08-17T13:22:34.894Z,29.38
2022-08-17T13:23:32.545Z,29.82
2022-08-17T13:24:38.391Z,29.93
2022-08-17T13:25:35.545Z,29.93
2022-08-17T13:26:49.571Z,29.95
2022-08-17T13:27:52.217Z,29.38
2022-08-17T13:28:51.742Z,29.78
2022-08-17T13:29:57.497Z,29.72
2022-08-17T13:31:20.884Z,29.75
2022-08-17T13:32:36.146Z,29.67
2022-08-17T13:33:45.193Z,29.76
2022-08-17T13:35:15.085Z,29.65
2022-08-17T13:36:07.707Z,29.42
2022-08-17T13:37:32.529Z,29.30
2022-08-17T13:38:39.532Z,29.38
2022-08-17T13:39:42.760Z,29.14
2022-08-17T13:40:53.256Z,29.21
2022-08-17T13:41:53.165Z,29.10
2022-08-17T13:42:54.194Z,28.91
2022-08-17T13:43:51.188Z,29.11
2022-08-17T13:44:48.578Z,29.36
2022-08-17T13:45:50.894Z,29.37
2022-08-17T13:46:52.532Z,28.84
2022-08-17T13:48:08.818Z,29.37
2022-08-17T13:49:12.115Z,29.28
2022-08-17T13:50:20.734Z,29.34
2022-08-17T13:51:26.644Z,29.32
2022-08-17T13:52:43.774Z,29.28
2022-08-17T13:53:41.257Z,29.40
2022-08-17T13:54:39.355Z,29.32
2022-08-17T13:56:02.450Z,28.99
2022-08-17T13:57:16.062Z,29.21
2022-08-17T13:58:21.717Z,28.78
2022-08-17T13:59:55.249Z,29.40
2022-08-17T14:00:53.068Z,29.62
2022-08-17T14:01:53.948Z,29.59
2022-08-17T14:02:51.002Z,29.46
2022-08-17T14:03:47.754Z,29.39
2022-08-17T14:04:48.715Z,29.23
2022-08-17T14:05:46.099Z,29.46
2022-08-17T14:06:52.848Z,29.53
2022-08-17T14:07:56.507Z,29.40
2022-08-17T14:08:55.797Z,29.52
2022-08-17T14:09:58.251Z,29.58
2022-08-17T14:10:58.653Z,29.36
2022-08-17T14:11:57.817Z,29.41
2022-08-17T14:12:54.879Z,29.24
2022-08-17T14:13:51.652Z,29.35
2022-08-17T14:14:49.599Z,29.40
2022-08-17T14:15:56.005Z,29.39
2022-08-17T14:16:54.403Z,29.33
2022-08-17T14:17:52.564Z,29.16
2022-08-17T14:18:56.741Z,29.23
2022-08-17T14:19:54.276Z,29.45
2022-08-17T14:20:53.191Z,29.49
2022-08-17T14:21:52.176Z,29.22
2022-08-17T14:22:53.912Z,29.55
2022-08-17T14:23:54.955Z,28.91